Time;durP1;ratioP1;P1;durP2;ratioP2;P2;SDS_P1;SDS_P2;PMS_P1;PMS_P2;Temp;Humidity;BMP_temperature;BMP_pressure;BME280_temperature;BME280_humidity;BME280_pressure;Samples;Min_cycle;Max_cycle;Signal;HPM_P1;HPM_P2
2022/12/01 00:01:18;;;;;;;8.77;6.57;;;;;;;;;;4555169;28;20045;-61
2022/12/01 00:03:29;;;;;;;8.38;6.25;;;;;;;;;;4563199;28;20044;-61
2022/12/01 00:05:40;;;;;;;7.28;5.88;;;;;;;;;;4564943;28;20032;-61
2022/12/01 00:07:50;;;;;;;8.38;6.10;;;;;;;;;;4563891;28;20641;-61
2022/12/01 00:12:30;;;;;;;6.97;5.68;;;;;;;;;;4562068;28;20039;-61
2022/12/01 00:14:40;;;;;;;8.80;6.25;;;;;;;;;;4532781;28;20068;-61
2022/12/01 00:16:51;;;;;;;8.18;6.20;;;;;;;;;;4561973;28;20032;-61
2022/12/01 00:19:01;;;;;;;7.75;5.50;;;;;;;;;;4539085;28;20044;-61
2022/12/01 00:21:12;;;;;;;7.20;5.82;;;;;;;;;;4562005;28;20024;-61
2022/12/01 00:23:23;;;;;;;7.60;6.03;;;;;;;;;;4562592;28;20813;-61
2022/12/01 00:25:33;;;;;;;9.50;6.25;;;;;;;;;;4548061;28;20029;-62
2022/12/01 00:27:48;;;;;;;8.02;5.90;;;;;;;;;;4563098;28;20083;-61
2022/12/01 00:29:59;;;;;;;7.95;5.75;;;;;;;;;;4562842;28;20274;-61
2022/12/01 00:32:09;;;;;;;7.80;5.65;;;;;;;;;;4563675;27;20039;-61
2022/12/01 00:34:21;;;;;;;7.65;5.60;;;;;;;;;;4562281;28;20075;-62
2022/12/01 00:36:31;;;;;;;7.82;5.60;;;;;;;;;;4554831;28;20523;-61
2022/12/01 00:38:42;;;;;;;8.25;5.72;;;;;;;;;;4563423;28;20651;-61
2022/12/01 00:40:52;;;;;;;8.68;6.15;;;;;;;;;;4564374;28;20032;-61
2022/12/01 00:43:02;;;;;;;8.02;5.63;;;;;;;;;;4547992;28;20493;-61
2022/12/01 00:45:13;;;;;;;8.00;5.85;;;;;;;;;;4563906;28;20057;-61
2022/12/01 00:47:23;;;;;;;7.00;5.60;;;;;;;;;;4564772;28;20044;-61
2022/12/01 00:49:33;;;;;;;7.22;5.25;;;;;;;;;;4564209;28;20052;-61
2022/12/01 00:51:43;;;;;;;7.50;5.45;;;;;;;;;;4551439;28;20128;-61
2022/12/01 00:53:54;;;;;;;7.45;5.25;;;;;;;;;;4564744;28;20482;-60
2022/12/01 00:56:04;;;;;;;7.18;5.47;;;;;;;;;;4564547;28;20123;-61
2022/12/01 00:58:14;;;;;;;7.53;5.00;;;;;;;;;;4563426;28;20035;-61
2022/12/01 01:00:25;;;;;;;6.18;4.88;;;;;;;;;;4563549;28;20045;-60
2022/12/01 01:02:37;;;;;;;7.32;5.55;;;;;;;;;;4563263;28;20036;-61
2022/12/01 01:04:47;;;;;;;6.57;5.15;;;;;;;;;;4552765;28;20039;-61
2022/12/01 01:06:58;;;;;;;6.40;4.85;;;;;;;;;;4563579;28;20036;-60
2022/12/01 01:09:08;;;;;;;6.10;4.90;;;;;;;;;;4563211;28;20032;-61
2022/12/01 01:11:19;;;;;;;6.10;4.57;;;;;;;;;;4562654;28;20044;-60
2022/12/01 01:13:29;;;;;;;6.50;5.10;;;;;;;;;;4554387;28;20106;-61
2022/12/01 01:15:40;;;;;;;5.65;4.68;;;;;;;;;;4563042;28;20029;-61
2022/12/01 01:17:50;;;;;;;6.45;4.65;;;;;;;;;;4562645;28;20388;-60
2022/12/01 01:20:00;;;;;;;6.90;4.88;;;;;;;;;;4563651;28;20037;-61
2022/12/01 01:22:11;;;;;;;5.85;4.60;;;;;;;;;;4563114;28;20037;-61
2022/12/01 01:24:21;;;;;;;5.65;4.47;;;;;;;;;;4563432;28;20040;-61
2022/12/01 01:26:32;;;;;;;5.38;4.32;;;;;;;;;;4563028;28;20108;-60
2022/12/01 01:28:42;;;;;;;5.47;4.40;;;;;;;;;;4545049;28;20094;-61
2022/12/01 01:30:52;;;;;;;6.10;4.60;;;;;;;;;;4563182;28;20070;-60
2022/12/01 01:33:03;;;;;;;6.55;4.35;;;;;;;;;;4562214;28;20048;-60
2022/12/01 01:35:13;;;;;;;6.05;4.35;;;;;;;;;;4563761;28;20044;-60
2022/12/01 01:37:23;;;;;;;5.57;4.53;;;;;;;;;;4562557;28;20041;-61
2022/12/01 01:39:34;;;;;;;4.93;4.05;;;;;;;;;;4564319;28;20066;-61
2022/12/01 01:41:45;;;;;;;5.80;4.28;;;;;;;;;;4562272;28;20520;-61
2022/12/01 01:43:57;;;;;;;5.38;4.05;;;;;;;;;;4561247;28;20040;-60
2022/12/01 01:46:15;;;;;;;5.05;3.97;;;;;;;;;;4562762;28;20149;-61
2022/12/01 01:48:25;;;;;;;5.80;4.47;;;;;;;;;;4563032;28;20578;-61
2022/12/01 01:50:36;;;;;;;5.40;4.35;;;;;;;;;;4561390;28;20028;-60
2022/12/01 01:52:52;;;;;;;5.40;4.25;;;;;;;;;;4561625;28;20074;-61
2022/12/01 01:55:02;;;;;;;4.93;3.88;;;;;;;;;;4562895;28;21077;-61
2022/12/01 01:57:14;;;;;;;4.88;4.25;;;;;;;;;;4561212;28;20098;-60
2022/12/01 01:59:30;;;;;;;5.20;4.15;;;;;;;;;;4562554;28;20040;-61
2022/12/01 02:01:40;;;;;;;5.38;4.15;;;;;;;;;;4562089;28;20866;-61
2022/12/01 02:03:52;;;;;;;5.43;4.35;;;;;;;;;;4562460;28;20035;-61
2022/12/01 02:06:03;;;;;;;5.72;4.00;;;;;;;;;;4563478;28;20842;-61
2022/12/01 02:08:13;;;;;;;4.45;3.85;;;;;;;;;;4546856;28;20028;-63
2022/12/01 02:10:42;;;;;;;4.85;4.00;;;;;;;;;;4560971;28;20044;-60
2022/12/01 02:12:58;;;;;;;4.72;3.63;;;;;;;;;;4561700;28;20130;-60
2022/12/01 02:15:16;;;;;;;5.10;4.07;;;;;;;;;;4544423;28;20053;-61
2022/12/01 02:17:29;;;;;;;4.68;3.85;;;;;;;;;;4563057;28;20044;-61
2022/12/01 02:19:43;;;;;;;4.40;3.92;;;;;;;;;;4562036;28;20036;-61
2022/12/01 02:22:07;;;;;;;5.10;3.90;;;;;;;;;;4561332;28;20082;-61
2022/12/01 02:24:17;;;;;;;5.18;3.80;;;;;;;;;;4562621;28;20110;-61
2022/12/01 02:26:47;;;;;;;5.88;4.15;;;;;;;;;;4562609;28;20091;-61
2022/12/01 02:29:17;;;;;;;4.53;3.78;;;;;;;;;;4563244;28;20072;-61
2022/12/01 02:31:33;;;;;;;4.22;3.50;;;;;;;;;;4562076;28;20132;-61
2022/12/01 02:33:49;;;;;;;4.38;3.70;;;;;;;;;;4544718;28;20037;-61
2022/12/01 02:36:17;;;;;;;4.20;3.47;;;;;;;;;;4563066;28;20048;-61
2022/12/01 02:38:40;;;;;;;4.00;3.58;;;;;;;;;;4546614;28;20063;-61
2022/12/01 02:41:01;;;;;;;4.32;3.40;;;;;;;;;;4562042;28;20041;-61
2022/12/01 02:43:16;;;;;;;4.55;3.72;;;;;;;;;;4562610;28;20040;-61
2022/12/01 02:45:33;;;;;;;4.70;3.60;;;;;;;;;;4562715;28;20037;-61
2022/12/01 02:47:44;;;;;;;4.32;3.50;;;;;;;;;;4561621;28;20090;-61
2022/12/01 02:49:56;;;;;;;3.97;3.55;;;;;;;;;;4561013;28;20078;-60
2022/12/01 02:52:07;;;;;;;4.88;3.92;;;;;;;;;;4561777;28;20190;-61
2022/12/01 02:54:18;;;;;;;4.88;3.58;;;;;;;;;;4561061;28;20652;-61
2022/12/01 02:56:28;;;;;;;4.38;3.58;;;;;;;;;;4562168;27;20041;-61
2022/12/01 02:58:39;;;;;;;5.28;4.13;;;;;;;;;;4564487;28;20033;-61
2022/12/01 03:00:52;;;;;;;5.05;4.05;;;;;;;;;;4564981;28;20518;-61
2022/12/01 03:03:19;;;;;;;4.90;3.88;;;;;;;;;;4564830;28;20036;-60
2022/12/01 03:05:35;;;;;;;4.30;3.67;;;;;;;;;;4565573;28;20669;-60
2022/12/01 03:07:59;;;;;;;4.88;3.72;;;;;;;;;;4564351;28;20574;-61
2022/12/01 03:10:12;;;;;;;4.00;3.42;;;;;;;;;;4564557;28;20032;-61
2022/12/01 03:12:31;;;;;;;4.18;3.70;;;;;;;;;;4564204;28;20088;-60
2022/12/01 03:14:50;;;;;;;4.07;3.60;;;;;;;;;;4544957;28;20090;-60
2022/12/01 03:17:03;;;;;;;5.07;4.05;;;;;;;;;;4564571;28;20558;-60
2022/12/01 03:19:18;;;;;;;4.43;3.70;;;;;;;;;;4563573;28;20649;-61
2022/12/01 03:21:34;;;;;;;4.13;3.70;;;;;;;;;;4563645;28;20053;-60
2022/12/01 03:23:49;;;;;;;4.75;3.80;;;;;;;;;;4563603;28;21034;-61
2022/12/01 03:26:00;;;;;;;5.22;3.90;;;;;;;;;;4564855;28;20107;-60
2022/12/01 03:28:12;;;;;;;4.40;3.88;;;;;;;;;;4564282;28;20580;-61
2022/12/01 03:30:24;;;;;;;4.53;3.78;;;;;;;;;;4564882;28;20037;-60
2022/12/01 03:32:37;;;;;;;4.63;3.70;;;;;;;;;;4564083;28;20032;-61
2022/12/01 03:34:57;;;;;;;5.13;3.90;;;;;;;;;;4564424;28;20036;-60
2022/12/01 03:37:16;;;;;;;4.68;3.58;;;;;;;;;;4566970;28;20045;-60
2022/12/01 03:39:31;;;;;;;4.75;4.25;;;;;;;;;;4555445;28;20048;-60
2022/12/01 03:41:43;;;;;;;5.40;4.28;;;;;;;;;;4563098;28;20784;-61
2022/12/01 03:44:00;;;;;;;4.88;4.07;;;;;;;;;;4565112;28;20056;-60
2022/12/01 03:46:14;;;;;;;5.00;3.95;;;;;;;;;;4565288;28;20036;-60
2022/12/01 03:48:25;;;;;;;5.72;4.70;;;;;;;;;;4554934;28;20055;-61
2022/12/01 03:50:40;;;;;;;5.60;4.65;;;;;;;;;;4564649;28;20051;-61
2022/12/01 03:53:01;;;;;;;6.95;4.93;;;;;;;;;;4563570;28;20040;-60
2022/12/01 03:55:26;;;;;;;5.55;4.50;;;;;;;;;;4564066;28;20045;-61
2022/12/01 03:57:42;;;;;;;5.70;4.55;;;;;;;;;;4563549;28;20118;-61
2022/12/01 03:59:53;;;;;;;5.75;4.88;;;;;;;;;;4564443;28;20040;-61
2022/12/01 04:02:06;;;;;;;5.95;4.78;;;;;;;;;;4563226;28;20040;-61
2022/12/01 04:04:17;;;;;;;6.38;4.80;;;;;;;;;;4564970;28;20040;-61
2022/12/01 04:06:27;;;;;;;6.03;4.80;;;;;;;;;;4547806;28;20477;-61
2022/12/01 04:08:38;;;;;;;7.13;5.30;;;;;;;;;;4563537;27;21050;-61
2022/12/01 04:10:48;;;;;;;6.70;5.05;;;;;;;;;;4564533;28;20040;-61
2022/12/01 04:12:59;;;;;;;6.72;5.20;;;;;;;;;;4565025;28;20618;-62
2022/12/01 04:15:11;;;;;;;6.15;4.80;;;;;;;;;;4563439;28;20582;-63
2022/12/01 04:17:21;;;;;;;6.65;5.25;;;;;;;;;;4565165;28;20094;-61
2022/12/01 04:19:32;;;;;;;5.88;4.75;;;;;;;;;;4564993;28;20163;-61
2022/12/01 04:21:42;;;;;;;6.38;5.10;;;;;;;;;;4562190;28;20118;-61
2022/12/01 04:24:01;;;;;;;6.07;5.03;;;;;;;;;;4565423;28;20041;-61
2022/12/01 04:26:12;;;;;;;6.97;5.45;;;;;;;;;;4562050;28;20039;-60
2022/12/01 04:28:22;;;;;;;6.93;5.28;;;;;;;;;;4564354;28;20031;-61
2022/12/01 04:30:32;;;;;;;6.82;5.60;;;;;;;;;;4564165;28;20587;-61
2022/12/01 04:32:43;;;;;;;7.95;5.78;;;;;;;;;;4563835;28;20040;-61
2022/12/01 04:34:53;;;;;;;8.10;5.65;;;;;;;;;;4554783;28;20126;-60
2022/12/01 04:37:04;;;;;;;7.22;5.68;;;;;;;;;;4563339;28;20035;-61
2022/12/01 04:39:15;;;;;;;6.88;5.60;;;;;;;;;;4563288;28;20631;-61
2022/12/01 04:41:25;;;;;;;7.32;5.20;;;;;;;;;;4562960;28;20044;-60
2022/12/01 04:43:36;;;;;;;6.60;5.68;;;;;;;;;;4564312;28;20111;-61
2022/12/01 04:45:46;;;;;;;7.40;5.55;;;;;;;;;;4563624;28;20044;-61
2022/12/01 04:47:56;;;;;;;7.97;5.68;;;;;;;;;;4563902;28;20214;-61
2022/12/01 04:50:07;;;;;;;6.63;5.20;;;;;;;;;;4564999;28;20536;-61
2022/12/01 04:52:17;;;;;;;7.28;5.45;;;;;;;;;;4563140;28;20029;-61
2022/12/01 04:54:27;;;;;;;7.57;5.80;;;;;;;;;;4564882;28;20572;-60
2022/12/01 04:56:38;;;;;;;7.82;5.57;;;;;;;;;;4563642;28;20086;-61
2022/12/01 04:58:48;;;;;;;7.25;5.47;;;;;;;;;;4563232;28;20131;-61
2022/12/01 05:01:10;;;;;;;8.00;5.85;;;;;;;;;;4563794;28;20040;-60
2022/12/01 05:03:20;;;;;;;7.40;5.85;;;;;;;;;;4554949;28;20040;-61
2022/12/01 05:05:30;;;;;;;7.78;5.57;;;;;;;;;;4564115;28;20048;-61
2022/12/01 05:07:40;;;;;;;7.03;5.43;;;;;;;;;;4562558;28;20040;-61
2022/12/01 05:09:51;;;;;;;7.97;5.60;;;;;;;;;;4545584;28;20041;-60
2022/12/01 05:12:01;;;;;;;7.60;5.70;;;;;;;;;;4563616;28;20059;-61
2022/12/01 05:14:11;;;;;;;7.53;5.60;;;;;;;;;;4563223;28;20046;-60
2022/12/01 05:16:23;;;;;;;7.80;5.75;;;;;;;;;;4548585;28;20033;-61
2022/12/01 05:18:33;;;;;;;8.05;5.85;;;;;;;;;;4564370;28;20143;-61
2022/12/01 05:20:56;;;;;;;8.70;5.75;;;;;;;;;;4563730;28;20032;-61
2022/12/01 05:23:06;;;;;;;8.15;5.90;;;;;;;;;;4554214;28;20203;-61
2022/12/01 05:25:17;;;;;;;8.88;6.35;;;;;;;;;;4563745;28;20036;-61
2022/12/01 05:27:27;;;;;;;8.05;6.13;;;;;;;;;;4548912;28;20158;-61
2022/12/01 05:29:37;;;;;;;8.45;6.22;;;;;;;;;;4547077;28;20029;-61
2022/12/01 05:31:48;;;;;;;7.82;5.60;;;;;;;;;;4563679;28;20051;-61
2022/12/01 05:33:58;;;;;;;7.63;5.70;;;;;;;;;;4562830;28;20370;-61
2022/12/01 05:36:08;;;;;;;8.00;5.57;;;;;;;;;;4562956;28;20043;-61
2022/12/01 05:38:19;;;;;;;8.57;6.20;;;;;;;;;;4562583;28;20038;-61
2022/12/01 05:40:29;;;;;;;7.95;6.00;;;;;;;;;;4563846;28;20440;-61
2022/12/01 05:42:40;;;;;;;8.73;6.15;;;;;;;;;;4564185;28;20116;-61
2022/12/01 05:44:50;;;;;;;9.15;6.13;;;;;;;;;;4563741;28;20493;-61
2022/12/01 05:47:00;;;;;;;7.57;6.00;;;;;;;;;;4561544;28;20518;-61
2022/12/01 05:49:10;;;;;;;8.02;6.10;;;;;;;;;;4562973;28;20569;-61
2022/12/01 05:51:21;;;;;;;7.97;5.85;;;;;;;;;;4562294;28;20079;-62
2022/12/01 05:53:31;;;;;;;8.80;6.05;;;;;;;;;;4553116;28;20096;-61
2022/12/01 05:55:41;;;;;;;8.73;6.15;;;;;;;;;;4561808;28;20059;-61
2022/12/01 05:57:52;;;;;;;9.50;6.32;;;;;;;;;;4563339;28;20229;-61
2022/12/01 06:00:04;;;;;;;9.32;6.63;;;;;;;;;;4561818;28;20544;-62
2022/12/01 06:02:21;;;;;;;8.27;6.13;;;;;;;;;;4548836;28;20048;-61
2022/12/01 06:04:31;;;;;;;8.77;6.45;;;;;;;;;;4562448;28;20040;-61
2022/12/01 06:06:42;;;;;;;8.70;6.50;;;;;;;;;;4562179;28;20314;-61
2022/12/01 06:08:52;;;;;;;8.10;6.00;;;;;;;;;;4561394;28;20050;-61
2022/12/01 06:11:02;;;;;;;9.38;6.55;;;;;;;;;;4562709;28;20036;-61
2022/12/01 06:13:13;;;;;;;9.32;6.50;;;;;;;;;;4560672;28;20369;-62
2022/12/01 06:15:23;;;;;;;9.77;6.72;;;;;;;;;;4562736;28;20040;-62
2022/12/01 06:17:33;;;;;;;9.38;6.47;;;;;;;;;;4561293;28;21007;-61
2022/12/01 06:19:44;;;;;;;9.93;7.20;;;;;;;;;;4562203;28;20079;-61
2022/12/01 06:21:54;;;;;;;8.70;6.63;;;;;;;;;;4562310;28;20601;-61
2022/12/01 06:24:05;;;;;;;8.90;6.65;;;;;;;;;;4562034;28;20062;-61
2022/12/01 06:26:15;;;;;;;8.10;6.43;;;;;;;;;;4562121;28;20034;-61
2022/12/01 06:28:25;;;;;;;9.45;6.75;;;;;;;;;;4562370;28;20037;-61
2022/12/01 06:30:35;;;;;;;8.68;6.50;;;;;;;;;;4564671;28;20032;-61
2022/12/01 06:32:46;;;;;;;9.02;6.80;;;;;;;;;;4564824;28;20540;-62
2022/12/01 06:34:56;;;;;;;8.57;6.75;;;;;;;;;;4552332;28;20043;-61
2022/12/01 06:37:06;;;;;;;9.32;6.25;;;;;;;;;;4567633;28;20090;-62
2022/12/01 06:39:16;;;;;;;9.35;6.65;;;;;;;;;;4549879;28;20036;-61
2022/12/01 06:41:27;;;;;;;9.48;7.07;;;;;;;;;;4563745;28;20085;-61
2022/12/01 06:43:37;;;;;;;8.32;6.45;;;;;;;;;;4565972;28;20040;-61
2022/12/01 06:45:47;;;;;;;9.30;6.93;;;;;;;;;;4565344;28;20020;-61
2022/12/01 06:47:58;;;;;;;9.25;7.05;;;;;;;;;;4564894;28;20040;-61
2022/12/01 06:50:10;;;;;;;10.50;7.53;;;;;;;;;;4550635;28;20041;-61
2022/12/01 06:52:21;;;;;;;9.63;7.20;;;;;;;;;;4565144;28;21429;-61
2022/12/01 06:54:32;;;;;;;9.60;7.30;;;;;;;;;;4566674;28;20033;-61
2022/12/01 06:56:42;;;;;;;9.20;7.50;;;;;;;;;;4566166;28;20041;-61
2022/12/01 06:58:53;;;;;;;4.20;2.92;;;;;;;;;;4566509;28;20040;-61
2022/12/01 07:01:08;;;;;;;6.80;5.22;;;;;;;;;;4566424;28;20032;-61
2022/12/01 07:03:18;;;;;;;10.20;7.40;;;;;;;;;;4564007;28;20744;-61
2022/12/01 07:05:28;;;;;;;10.50;7.57;;;;;;;;;;4565362;28;20036;-61
2022/12/01 07:07:39;;;;;;;10.07;7.85;;;;;;;;;;4563761;28;20630;-61
2022/12/01 07:09:49;;;;;;;5.07;2.78;;;;;;;;;;4565565;28;20032;-61
2022/12/01 07:12:00;;;;;;;5.20;2.83;;;;;;;;;;4564837;28;20063;-61
2022/12/01 07:14:20;;;;;;;4.95;3.00;;;;;;;;;;4563259;28;20044;-61
2022/12/01 07:16:31;;;;;;;5.43;2.80;;;;;;;;;;4563726;28;20037;-61
2022/12/01 07:18:43;;;;;;;4.35;2.80;;;;;;;;;;4564084;28;20036;-61
2022/12/01 07:20:57;;;;;;;4.70;2.75;;;;;;;;;;4565347;28;20031;-61
2022/12/01 07:23:07;;;;;;;5.10;3.00;;;;;;;;;;4564950;28;20059;-61
2022/12/01 07:25:18;;;;;;;5.28;2.80;;;;;;;;;;4550759;28;20124;-61
2022/12/01 07:27:29;;;;;;;4.07;2.97;;;;;;;;;;4564577;28;20040;-61
2022/12/01 07:29:39;;;;;;;4.43;2.78;;;;;;;;;;4561946;28;20660;-61
2022/12/01 07:31:49;;;;;;;6.78;3.17;;;;;;;;;;4563611;28;20040;-61
2022/12/01 07:34:00;;;;;;;4.88;2.90;;;;;;;;;;4563504;28;20048;-61
2022/12/01 07:36:11;;;;;;;5.20;3.15;;;;;;;;;;4552331;28;20033;-62
2022/12/01 07:38:21;;;;;;;4.85;3.15;;;;;;;;;;4562479;28;20415;-61
2022/12/01 07:40:31;;;;;;;6.10;3.05;;;;;;;;;;4562829;28;20043;-61
2022/12/01 07:42:42;;;;;;;5.13;2.97;;;;;;;;;;4561898;27;20520;-60
2022/12/01 07:44:52;;;;;;;5.07;2.97;;;;;;;;;;4563048;28;20571;-61
2022/12/01 07:47:02;;;;;;;5.03;3.22;;;;;;;;;;4562674;28;20029;-60
2022/12/01 07:49:14;;;;;;;5.13;3.30;;;;;;;;;;4564545;28;20136;-61
2022/12/01 07:51:25;;;;;;;5.85;3.05;;;;;;;;;;4563450;28;20712;-61
2022/12/01 07:53:36;;;;;;;4.80;3.03;;;;;;;;;;4538208;28;20746;-61
2022/12/01 07:55:46;;;;;;;4.28;3.25;;;;;;;;;;4548263;28;20425;-61
2022/12/01 07:58:00;;;;;;;5.40;3.05;;;;;;;;;;4562565;28;20592;-61
2022/12/01 08:00:10;;;;;;;5.68;3.08;;;;;;;;;;4554344;28;20036;-61
2022/12/01 08:02:24;;;;;;;5.15;2.83;;;;;;;;;;4554672;28;20037;-61
2022/12/01 08:04:34;;;;;;;4.35;2.70;;;;;;;;;;4562441;28;20035;-61
2022/12/01 08:06:44;;;;;;;5.13;2.72;;;;;;;;;;4554123;28;20107;-60
2022/12/01 08:08:55;;;;;;;5.32;3.15;;;;;;;;;;4564029;28;20036;-61
2022/12/01 08:11:06;;;;;;;4.57;2.80;;;;;;;;;;4563815;28;20032;-62
2022/12/01 08:13:17;;;;;;;5.18;2.88;;;;;;;;;;4546621;28;20036;-62
2022/12/01 08:15:27;;;;;;;4.35;2.72;;;;;;;;;;4564234;28;20055;-61
2022/12/01 08:17:38;;;;;;;5.30;3.05;;;;;;;;;;4563680;28;20086;-62
2022/12/01 08:19:48;;;;;;;4.82;2.80;;;;;;;;;;4564012;28;20133;-62
2022/12/01 08:21:58;;;;;;;5.40;3.13;;;;;;;;;;4563204;28;20044;-61
2022/12/01 08:24:09;;;;;;;4.70;2.78;;;;;;;;;;4564100;28;20036;-62
2022/12/01 08:26:20;;;;;;;4.63;2.80;;;;;;;;;;4548772;28;20044;-62
2022/12/01 08:28:31;;;;;;;5.05;2.92;;;;;;;;;;4562286;28;20068;-60
2022/12/01 08:30:41;;;;;;;4.38;2.80;;;;;;;;;;4562340;28;20112;-61
2022/12/01 08:32:53;;;;;;;4.25;2.58;;;;;;;;;;4562270;28;20028;-61
2022/12/01 08:35:03;;;;;;;4.25;2.70;;;;;;;;;;4561172;28;20999;-64
2022/12/01 08:37:14;;;;;;;4.85;3.03;;;;;;;;;;4555074;28;20029;-62
2022/12/01 08:39:24;;;;;;;4.25;2.67;;;;;;;;;;4533762;28;20122;-61
2022/12/01 08:41:34;;;;;;;5.00;3.08;;;;;;;;;;4544649;28;20032;-61
2022/12/01 08:43:45;;;;;;;3.60;2.80;;;;;;;;;;4562693;28;20461;-61
2022/12/01 08:45:59;;;;;;;3.60;2.60;;;;;;;;;;4554914;28;20029;-61
2022/12/01 08:48:09;;;;;;;4.82;2.75;;;;;;;;;;4554541;28;20040;-61
2022/12/01 08:50:19;;;;;;;3.60;2.42;;;;;;;;;;4562857;28;20036;-61
2022/12/01 08:52:31;;;;;;;3.97;2.60;;;;;;;;;;4563158;28;20044;-62
2022/12/01 08:54:41;;;;;;;3.65;2.65;;;;;;;;;;4563486;28;20079;-61
2022/12/01 08:56:51;;;;;;;4.25;2.63;;;;;;;;;;4562676;28;20123;-61
2022/12/01 08:59:02;;;;;;;3.60;2.72;;;;;;;;;;4563020;28;20032;-61
2022/12/01 09:01:14;;;;;;;4.57;2.60;;;;;;;;;;4562709;28;20040;-61
2022/12/01 09:03:24;;;;;;;4.57;2.80;;;;;;;;;;4560014;28;20653;-61
2022/12/01 09:05:34;;;;;;;4.53;2.90;;;;;;;;;;4548781;28;20079;-61
2022/12/01 09:08:29;;;;;;;3.67;2.67;;;;;;;;;;4561095;28;20843;-61
2022/12/01 09:10:15;;;;;;;3.80;2.67;;;;;;;;;;4561133;28;20036;-61
2022/12/01 09:12:27;;;;;;;3.47;2.60;;;;;;;;;;4585228;22;20047;-61
2022/12/01 09:14:38;;;;;;;4.50;2.88;;;;;;;;;;4598314;27;20043;-64
2022/12/01 09:16:49;;;;;;;3.72;2.67;;;;;;;;;;4599793;27;20856;-63
2022/12/01 09:18:59;;;;;;;4.55;2.72;;;;;;;;;;4601738;27;20093;-68
2022/12/01 09:21:11;;;;;;;4.65;2.60;;;;;;;;;;4599234;27;20027;-63
2022/12/01 09:23:21;;;;;;;3.80;2.58;;;;;;;;;;4600380;27;20864;-63
2022/12/01 09:25:32;;;;;;;3.50;2.45;;;;;;;;;;4601381;27;20019;-61
2022/12/01 09:27:42;;;;;;;4.75;2.60;;;;;;;;;;4599357;27;20031;-60
2022/12/01 09:29:53;;;;;;;3.92;2.60;;;;;;;;;;4587824;27;20050;-60
2022/12/01 09:32:03;;;;;;;5.30;2.58;;;;;;;;;;4599127;27;20027;-61
2022/12/01 09:34:15;;;;;;;3.72;2.60;;;;;;;;;;4602815;27;20608;-61
2022/12/01 09:36:26;;;;;;;3.65;2.65;;;;;;;;;;4600785;27;20031;-65
2022/12/01 09:38:37;;;;;;;4.25;2.80;;;;;;;;;;4607827;27;20041;-61
2022/12/01 09:40:47;;;;;;;3.20;2.38;;;;;;;;;;4601924;27;20027;-62
2022/12/01 09:42:59;;;;;;;4.20;2.55;;;;;;;;;;4600120;27;20046;-62
2022/12/01 09:45:16;;;;;;;4.13;2.80;;;;;;;;;;4602907;27;20100;-62
2022/12/01 09:47:36;;;;;;;3.55;2.60;;;;;;;;;;4599679;27;20350;-62
2022/12/01 09:49:53;;;;;;;3.83;2.80;;;;;;;;;;4599410;27;20043;-63
2022/12/01 09:52:04;;;;;;;4.60;2.70;;;;;;;;;;4597979;27;20038;-64
2022/12/01 09:54:14;;;;;;;3.60;2.60;;;;;;;;;;4598534;27;20039;-61
2022/12/01 09:56:26;;;;;;;3.17;2.45;;;;;;;;;;4600132;27;20475;-61
2022/12/01 09:58:36;;;;;;;4.13;2.30;;;;;;;;;;4597864;27;20038;-61
2022/12/01 10:00:48;;;;;;;3.47;2.65;;;;;;;;;;4599593;27;20050;-61
2022/12/01 10:03:05;;;;;;;3.90;2.90;;;;;;;;;;4598622;27;20244;-61
2022/12/01 10:05:18;;;;;;;4.40;2.65;;;;;;;;;;4598068;27;20039;-61
2022/12/01 10:08:07;;;;;;;5.32;2.80;;;;;;;;;;4598730;27;20625;-61
2022/12/01 10:10:23;;;;;;;4.93;2.63;;;;;;;;;;4523533;28;20041;-61
2022/12/01 10:12:34;;;;;;;3.70;2.70;;;;;;;;;;4524237;28;20039;-62
2022/12/01 10:14:45;;;;;;;3.25;2.70;;;;;;;;;;4539674;27;20051;-62
2022/12/01 10:17:16;;;;;;;4.22;2.70;;;;;;;;;;4601090;27;20154;-62
2022/12/01 10:19:35;;;;;;;3.75;2.67;;;;;;;;;;4608019;27;20039;-62
2022/12/01 10:22:04;;;;;;;3.72;2.75;;;;;;;;;;4599505;27;20036;-62
2022/12/01 10:24:32;;;;;;;3.88;2.60;;;;;;;;;;4599738;27;20573;-62
2022/12/01 10:26:50;;;;;;;3.45;2.60;;;;;;;;;;4599428;27;20051;-61
2022/12/01 10:29:03;;;;;;;3.85;2.60;;;;;;;;;;4600997;27;20032;-62
2022/12/01 10:31:22;;;;;;;4.30;2.47;;;;;;;;;;4599902;27;20741;-62
2022/12/01 10:33:34;;;;;;;5.50;2.50;;;;;;;;;;4598564;27;20532;-62
2022/12/01 10:35:45;;;;;;;3.65;2.50;;;;;;;;;;4608924;27;21034;-62
2022/12/01 10:37:57;;;;;;;3.75;2.47;;;;;;;;;;4600819;27;20081;-62
2022/12/01 10:40:11;;;;;;;3.95;2.83;;;;;;;;;;4599145;27;20579;-62
2022/12/01 10:42:42;;;;;;;3.80;2.85;;;;;;;;;;4599219;27;20034;-63
2022/12/01 10:44:53;;;;;;;4.82;2.60;;;;;;;;;;4601255;27;20046;-63
2022/12/01 10:47:08;;;;;;;3.58;2.78;;;;;;;;;;4600828;27;20027;-62
2022/12/01 10:49:18;;;;;;;3.28;2.40;;;;;;;;;;4599608;27;20279;-62
2022/12/01 10:51:29;;;;;;;3.63;2.65;;;;;;;;;;4601856;27;20031;-62
2022/12/01 10:53:39;;;;;;;4.80;2.97;;;;;;;;;;4600464;27;20039;-63
2022/12/01 10:55:50;;;;;;;4.00;2.80;;;;;;;;;;4598701;27;20514;-63
2022/12/01 10:58:03;;;;;;;3.78;2.60;;;;;;;;;;4601404;27;20024;-63
2022/12/01 11:00:25;;;;;;;3.97;2.83;;;;;;;;;;4598653;27;20044;-63
2022/12/01 11:02:35;;;;;;;3.55;2.83;;;;;;;;;;4598615;27;20032;-62
2022/12/01 11:05:00;;;;;;;3.60;2.65;;;;;;;;;;4600274;27;20036;-62
2022/12/01 11:07:21;;;;;;;3.05;2.50;;;;;;;;;;4599354;27;20036;-62
2022/12/01 11:09:32;;;;;;;2.95;2.17;;;;;;;;;;4598730;27;20085;-64
2022/12/01 11:11:42;;;;;;;4.22;2.65;;;;;;;;;;4598267;27;20039;-62
2022/12/01 11:13:53;;;;;;;4.50;2.65;;;;;;;;;;4598601;27;20027;-62
2022/12/01 11:16:04;;;;;;;3.25;2.40;;;;;;;;;;4614975;27;20043;-62
2022/12/01 11:18:35;;;;;;;4.00;2.75;;;;;;;;;;4603983;27;20196;-63
2022/12/01 11:20:45;;;;;;;2.95;2.45;;;;;;;;;;4601445;27;20052;-63
2022/12/01 11:23:08;;;;;;;4.38;2.58;;;;;;;;;;4602141;27;20550;-63
2022/12/01 11:25:19;;;;;;;5.10;3.15;;;;;;;;;;4610536;27;20616;-63
2022/12/01 11:27:43;;;;;;;3.95;2.70;;;;;;;;;;4603019;27;20027;-63
2022/12/01 11:29:56;;;;;;;5.07;2.90;;;;;;;;;;4603566;27;20535;-62
2022/12/01 11:32:17;;;;;;;4.95;2.80;;;;;;;;;;4601872;27;20582;-62
2022/12/01 11:34:30;;;;;;;4.18;2.90;;;;;;;;;;4602581;27;20568;-63
2022/12/01 11:36:45;;;;;;;3.63;2.85;;;;;;;;;;4610848;27;20039;-63
2022/12/01 11:38:56;;;;;;;4.15;3.00;;;;;;;;;;4602775;27;20825;-63
2022/12/01 11:41:21;;;;;;;10.40;7.97;;;;;;;;;;4601688;27;20078;-62
2022/12/01 11:43:34;;;;;;;10.52;8.63;;;;;;;;;;4604047;27;20032;-63
2022/12/01 11:45:44;;;;;;;10.52;8.40;;;;;;;;;;4601472;27;20039;-63
2022/12/01 11:48:16;;;;;;;11.13;8.55;;;;;;;;;;4603065;27;20023;-63
2022/12/01 11:50:27;;;;;;;10.32;8.40;;;;;;;;;;4601453;27;20325;-62
2022/12/01 11:52:45;;;;;;;3.88;3.08;;;;;;;;;;4599066;27;20037;-63
2022/12/01 11:54:58;;;;;;;8.07;6.45;;;;;;;;;;4602783;27;20039;-63
2022/12/01 11:57:08;;;;;;;10.88;8.25;;;;;;;;;;4601177;27;20038;-62
2022/12/01 11:59:23;;;;;;;10.80;8.38;;;;;;;;;;4603876;27;20514;-62
2022/12/01 12:01:42;;;;;;;10.40;8.00;;;;;;;;;;4601986;27;20043;-62
2022/12/01 12:04:07;;;;;;;9.77;7.95;;;;;;;;;;4610648;27;20081;-62
2022/12/01 12:06:21;;;;;;;3.90;2.78;;;;;;;;;;4602775;27;20058;-62
2022/12/01 12:08:31;;;;;;;4.72;2.80;;;;;;;;;;4601267;27;20039;-62
2022/12/01 12:11:00;;;;;;;5.38;2.90;;;;;;;;;;4602381;27;20047;-62
2022/12/01 12:13:18;;;;;;;4.32;2.80;;;;;;;;;;4601255;27;20105;-63
2022/12/01 12:15:47;;;;;;;4.07;2.90;;;;;;;;;;4602497;27;20505;-63
2022/12/01 12:18:04;;;;;;;4.85;3.10;;;;;;;;;;4599295;27;20592;-62
2022/12/01 12:20:17;;;;;;;3.60;2.83;;;;;;;;;;4600814;27;20285;-63
2022/12/01 12:22:39;;;;;;;4.13;2.90;;;;;;;;;;4603193;27;20016;-63
2022/12/01 12:24:52;;;;;;;4.20;2.80;;;;;;;;;;4601041;27;20550;-63
2022/12/01 12:27:12;;;;;;;3.70;2.65;;;;;;;;;;4604330;27;20030;-63
2022/12/01 12:29:32;;;;;;;4.05;2.95;;;;;;;;;;4601107;27;20039;-63
2022/12/01 12:31:54;;;;;;;3.95;2.95;;;;;;;;;;4601248;27;21084;-62
2022/12/01 12:34:24;;;;;;;4.22;3.00;;;;;;;;;;4600079;27;20962;-63
2022/12/01 12:36:34;;;;;;;4.32;3.00;;;;;;;;;;4601245;27;20039;-62
2022/12/01 12:38:47;;;;;;;4.75;3.10;;;;;;;;;;4600501;27;20031;-62
2022/12/01 12:41:16;;;;;;;4.47;3.47;;;;;;;;;;4600291;27;20487;-62
2022/12/01 12:43:47;;;;;;;4.40;3.17;;;;;;;;;;4601121;27;20039;-63
2022/12/01 12:46:00;;;;;;;3.75;2.80;;;;;;;;;;4568431;27;20496;-62
2022/12/01 12:48:30;;;;;;;4.45;2.90;;;;;;;;;;4603200;27;20074;-62
2022/12/01 12:50:57;;;;;;;3.88;2.88;;;;;;;;;;4609909;27;20128;-63
2022/12/01 12:53:17;;;;;;;3.27;2.60;;;;;;;;;;4601375;27;21514;-62
2022/12/01 12:55:48;;;;;;;3.72;2.80;;;;;;;;;;4599717;27;20994;-62
2022/12/01 12:58:24;;;;;;;4.18;2.72;;;;;;;;;;4600057;27;20574;-62
2022/12/01 13:00:37;;;;;;;4.70;3.05;;;;;;;;;;4597784;27;20141;-63
2022/12/01 13:02:51;;;;;;;4.20;3.10;;;;;;;;;;4600476;27;20058;-63
2022/12/01 13:05:05;;;;;;;3.75;2.70;;;;;;;;;;4600073;27;20032;-63
2022/12/01 13:07:22;;;;;;;3.47;2.80;;;;;;;;;;4608962;27;20425;-62
2022/12/01 13:09:39;;;;;;;4.07;3.13;;;;;;;;;;4598738;27;20506;-63
2022/12/01 13:11:56;;;;;;;3.65;2.90;;;;;;;;;;4599063;27;20019;-62
2022/12/01 13:14:13;;;;;;;3.67;3.00;;;;;;;;;;4600887;27;20035;-63
2022/12/01 13:16:26;;;;;;;3.70;2.90;;;;;;;;;;4599204;27;20075;-64
2022/12/01 13:18:46;;;;;;;4.32;2.97;;;;;;;;;;4600192;27;20106;-63
2022/12/01 13:20:57;;;;;;;3.55;2.85;;;;;;;;;;4597902;27;20534;-63
2022/12/01 13:23:11;;;;;;;3.75;3.08;;;;;;;;;;4598896;27;20379;-66